Time;durP1;ratioP1;P1;durP2;ratioP2;P2;SDS_P1;SDS_P2;PMS_P1;PMS_P2;Temp;Humidity;BMP_temperature;BMP_pressure;BME280_temperature;BME280_humidity;BME280_pressure;Samples;Min_cycle;Max_cycle;Signal;HPM_P1;HPM_P2
2023/07/06 00:00:11;;;;;;;2.05;1.40;;;;;;;14.22;100.00;101177.53;6204897;28;20061;-71
2023/07/06 00:03:14;;;;;;;3.58;2.05;;;;;;;14.16;100.00;101172.59;6204865;28;20477;-71
2023/07/06 00:06:16;;;;;;;2.38;1.70;;;;;;;14.15;100.00;101181.47;6204848;28;20442;-71
2023/07/06 00:09:18;;;;;;;3.63;2.40;;;;;;;14.12;100.00;101177.22;6203668;28;20073;-71
2023/07/06 00:12:23;;;;;;;3.70;1.60;;;;;;;14.11;100.00;101179.97;6210038;28;20042;-71
2023/07/06 00:15:24;;;;;;;4.90;1.90;;;;;;;14.08;100.00;101180.13;6199691;28;20353;-71
2023/07/06 00:18:25;;;;;;;4.32;2.17;;;;;;;14.06;100.00;101182.88;6204496;28;20045;-71
2023/07/06 00:21:29;;;;;;;5.80;2.05;;;;;;;14.08;100.00;101191.59;6204566;28;20054;-71
2023/07/06 00:24:31;;;;;;;4.65;1.77;;;;;;;14.08;100.00;101188.94;6208410;28;20046;-71
2023/07/06 00:27:33;;;;;;;3.10;2.00;;;;;;;14.07;100.00;101195.16;6192226;28;20046;-71
2023/07/06 00:30:53;;;;;;;2.85;1.90;;;;;;;14.08;100.00;101193.34;6204468;28;20053;-71
2023/07/06 00:33:54;;;;;;;2.38;1.52;;;;;;;14.05;100.00;101204.97;6204165;28;20050;-71
2023/07/06 00:36:55;;;;;;;5.50;2.05;;;;;;;14.11;100.00;101203.75;6204019;28;20332;-71
2023/07/06 00:39:57;;;;;;;2.88;1.58;;;;;;;14.15;100.00;101197.34;6204004;28;20050;-71
2023/07/06 00:43:00;;;;;;;3.53;1.88;;;;;;;14.23;100.00;101208.31;6203856;28;20054;-71
2023/07/06 00:46:08;;;;;;;3.45;1.95;;;;;;;14.27;100.00;101190.47;6203886;28;20442;-71
2023/07/06 00:49:15;;;;;;;3.42;1.80;;;;;;;14.30;100.00;101193.75;6203737;28;20499;-70
2023/07/06 00:52:16;;;;;;;6.35;2.13;;;;;;;14.27;100.00;101193.94;6201087;28;20379;-71
2023/07/06 00:55:22;;;;;;;3.75;2.08;;;;;;;14.30;100.00;101195.53;6190133;28;20061;-71
2023/07/06 00:58:30;;;;;;;2.17;1.60;;;;;;;14.23;100.00;101199.53;6194937;28;20043;-71
2023/07/06 01:01:33;;;;;;;3.75;1.90;;;;;;;14.28;100.00;101203.56;6183543;28;20446;-71
2023/07/06 01:04:35;;;;;;;3.15;1.63;;;;;;;14.26;100.00;101205.47;6179285;28;20047;-71
2023/07/06 01:07:40;;;;;;;3.22;1.80;;;;;;;14.31;100.00;101207.84;6199898;28;20042;-71
2023/07/06 01:10:43;;;;;;;3.47;1.85;;;;;;;14.32;100.00;101207.75;6203332;28;20049;-71
2023/07/06 01:13:49;;;;;;;4.25;1.95;;;;;;;14.24;100.00;101210.00;6189031;28;20058;-71
2023/07/06 01:16:57;;;;;;;4.55;1.85;;;;;;;14.29;100.00;101209.72;6201575;28;20133;-71
2023/07/06 01:20:14;;;;;;;5.00;2.20;;;;;;;14.30;100.00;101214.03;6202907;28;20453;-71
2023/07/06 01:23:41;;;;;;;3.20;1.80;;;;;;;14.33;100.00;101213.88;6202780;28;20046;-71
2023/07/06 01:27:00;;;;;;;4.85;1.80;;;;;;;14.32;100.00;101213.03;6203300;28;20057;-71
2023/07/06 01:30:26;;;;;;;2.75;1.67;;;;;;;14.36;100.00;101217.19;6202824;28;20046;-71
2023/07/06 01:33:36;;;;;;;3.78;2.00;;;;;;;14.37;100.00;101218.88;6202416;28;20069;-71
2023/07/06 01:36:44;;;;;;;3.17;1.77;;;;;;;14.32;100.00;101218.31;6202885;28;20062;-71
2023/07/06 01:39:45;;;;;;;2.92;1.55;;;;;;;14.28;100.00;101222.09;6202719;28;20046;-71
2023/07/06 01:42:47;;;;;;;4.15;1.98;;;;;;;14.21;100.00;101224.22;6202478;28;20054;-71
2023/07/06 01:45:49;;;;;;;3.63;2.20;;;;;;;14.12;100.00;101226.59;6202571;28;20051;-71
2023/07/06 01:48:52;;;;;;;6.38;2.42;;;;;;;14.00;100.00;101230.84;6202330;28;20054;-71
2023/07/06 01:51:59;;;;;;;4.38;1.88;;;;;;;13.96;100.00;101226.69;6202248;28;20050;-72
2023/07/06 01:55:09;;;;;;;3.53;2.00;;;;;;;13.95;100.00;101230.28;6202472;28;20053;-71
2023/07/06 01:58:17;;;;;;;3.65;2.15;;;;;;;13.91;100.00;101229.59;6202183;28;20332;-71
2023/07/06 02:01:26;;;;;;;3.22;1.85;;;;;;;13.87;100.00;101229.88;6202378;28;20073;-71
2023/07/06 02:04:30;;;;;;;3.97;2.17;;;;;;;13.85;100.00;101231.72;6202247;28;20061;-71
2023/07/06 02:07:33;;;;;;;2.42;1.83;;;;;;;13.84;100.00;101235.31;6202392;28;20050;-71
2023/07/06 02:10:34;;;;;;;6.72;3.30;;;;;;;13.81;100.00;101235.53;6202048;28;20124;-71
2023/07/06 02:13:36;;;;;;;6.90;2.45;;;;;;;13.86;100.00;101236.09;6201656;28;20354;-71
2023/07/06 02:16:37;;;;;;;6.75;2.53;;;;;;;13.87;100.00;101228.06;6202022;28;20442;-71
2023/07/06 02:19:40;;;;;;;5.80;2.47;;;;;;;13.90;100.00;101243.75;6200257;28;20046;-71
2023/07/06 02:22:41;;;;;;;4.70;2.85;;;;;;;13.85;100.00;101237.91;6201508;28;20054;-71
2023/07/06 02:25:44;;;;;;;4.70;3.13;;;;;;;13.91;100.00;101241.97;6201856;28;20050;-71
2023/07/06 02:28:45;;;;;;;5.72;3.45;;;;;;;13.91;100.00;101245.44;6201260;28;20057;-71
2023/07/06 02:31:47;;;;;;;8.05;3.40;;;;;;;13.98;100.00;101245.91;6200792;28;20057;-71
2023/07/06 02:34:49;;;;;;;7.65;4.00;;;;;;;14.01;100.00;101243.09;6201887;28;20509;-71
2023/07/06 02:37:52;;;;;;;9.50;3.97;;;;;;;14.00;100.00;101249.34;6201675;28;20054;-71
2023/07/06 02:40:54;;;;;;;8.20;4.50;;;;;;;14.04;100.00;101236.81;6201879;28;20439;-71
2023/07/06 02:43:55;;;;;;;9.00;4.88;;;;;;;14.07;100.00;101244.53;6198119;28;20053;-71
2023/07/06 02:46:56;;;;;;;7.95;4.22;;;;;;;14.02;100.00;101239.50;6201831;28;20058;-70
2023/07/06 02:49:59;;;;;;;11.07;5.50;;;;;;;13.99;100.00;101241.47;6201876;28;20361;-71
2023/07/06 02:53:00;;;;;;;12.43;5.18;;;;;;;14.01;100.00;101240.47;6208572;28;20462;-71
2023/07/06 02:56:03;;;;;;;8.27;4.25;;;;;;;14.02;100.00;101239.50;6217073;28;20078;-71
2023/07/06 02:59:05;;;;;;;7.55;5.03;;;;;;;14.01;100.00;101245.75;6209573;28;20105;-71
2023/07/06 03:02:06;;;;;;;6.93;4.38;;;;;;;14.02;100.00;101243.94;6225627;28;20118;-70
2023/07/06 03:05:10;;;;;;;9.45;5.10;;;;;;;14.00;100.00;101256.41;6215866;28;20125;-70
2023/07/06 03:08:11;;;;;;;8.68;4.88;;;;;;;13.95;100.00;101251.41;6194151;28;20051;-71
2023/07/06 03:11:12;;;;;;;9.93;5.43;;;;;;;13.93;100.00;101246.19;6201417;28;20062;-70
2023/07/06 03:14:14;;;;;;;9.88;5.32;;;;;;;13.98;100.00;101253.84;6201255;28;20057;-71
2023/07/06 03:17:15;;;;;;;9.43;5.25;;;;;;;13.95;100.00;101260.19;6180733;28;20058;-70
2023/07/06 03:20:20;;;;;;;10.02;5.63;;;;;;;13.94;100.00;101253.22;6175084;28;20077;-71
2023/07/06 03:23:21;;;;;;;10.30;5.47;;;;;;;13.90;100.00;101262.25;6168433;28;20061;-71
2023/07/06 03:26:24;;;;;;;10.80;5.50;;;;;;;13.92;100.00;101262.16;6172633;28;20300;-70
2023/07/06 03:29:25;;;;;;;13.43;5.40;;;;;;;13.96;100.00;101261.88;6189862;28;20137;-71
2023/07/06 03:32:26;;;;;;;11.38;5.78;;;;;;;13.92;100.00;101262.16;6196769;28;20454;-71
2023/07/06 03:35:29;;;;;;;8.30;4.07;;;;;;;13.95;100.00;101260.19;6190633;28;20058;-71
2023/07/06 03:38:31;;;;;;;11.65;5.38;;;;;;;14.01;100.00;101261.59;6185893;28;20042;-72
2023/07/06 03:41:32;;;;;;;6.47;4.57;;;;;;;14.04;100.00;101258.78;6183702;28;20050;-70
2023/07/06 03:44:33;;;;;;;11.02;6.03;;;;;;;14.07;100.00;101263.03;6200604;28;20050;-70
2023/07/06 03:47:37;;;;;;;9.43;5.55;;;;;;;14.02;100.00;101271.22;6197821;28;20053;-71
2023/07/06 03:50:40;;;;;;;6.88;4.60;;;;;;;14.05;100.00;101272.84;6195700;28;20084;-71
2023/07/06 03:53:41;;;;;;;7.93;4.82;;;;;;;13.99;100.00;101275.84;6187540;28;20046;-73
2023/07/06 03:56:42;;;;;;;9.15;5.60;;;;;;;13.98;100.00;101272.34;6190202;28;20045;-71
2023/07/06 03:59:44;;;;;;;9.25;5.25;;;;;;;13.99;100.00;101278.47;6202726;28;20050;-71
2023/07/06 04:02:45;;;;;;;9.02;5.55;;;;;;;13.98;100.00;101282.91;6210795;28;20046;-71
2023/07/06 04:05:49;;;;;;;8.43;5.13;;;;;;;13.84;100.00;101281.09;6212851;28;20065;-71
2023/07/06 04:08:52;;;;;;;9.63;5.57;;;;;;;13.93;100.00;101279.69;6212921;28;20077;-71
2023/07/06 04:11:54;;;;;;;8.23;4.53;;;;;;;13.93;100.00;101280.53;6210116;28;20125;-71
2023/07/06 04:14:56;;;;;;;8.15;4.68;;;;;;;13.94;100.00;101282.28;6209626;28;20052;-71
2023/07/06 04:17:57;;;;;;;13.02;5.90;;;;;;;13.77;100.00;101286.84;6211119;28;20052;-72
2023/07/06 04:21:01;;;;;;;10.43;5.63;;;;;;;13.85;100.00;101290.72;6227205;28;20061;-71
2023/07/06 04:24:04;;;;;;;8.50;5.13;;;;;;;13.86;100.00;101289.78;6228818;28;20081;-71
2023/07/06 04:27:05;;;;;;;9.32;5.85;;;;;;;13.85;100.00;101293.38;6229133;28;20061;-71
2023/07/06 04:30:09;;;;;;;9.32;5.45;;;;;;;13.89;100.00;101289.59;6228869;28;20426;-71
2023/07/06 04:33:15;;;;;;;10.55;5.05;;;;;;;13.92;100.00;101297.34;6228760;28;20046;-71
2023/07/06 04:36:18;;;;;;;9.35;5.15;;;;;;;13.93;100.00;101301.69;6228832;28;20061;-71
2023/07/06 04:39:20;;;;;;;10.68;5.38;;;;;;;14.00;100.00;101299.53;6228815;28;20073;-71
2023/07/06 04:42:27;;;;;;;8.63;5.35;;;;;;;13.98;100.00;101301.41;6228299;28;20045;-71
2023/07/06 04:45:28;;;;;;;10.98;5.68;;;;;;;14.01;100.00;101301.25;6228746;28;20057;-71
2023/07/06 04:48:32;;;;;;;10.20;5.30;;;;;;;14.05;100.00;101301.91;6214203;28;20050;-70
2023/07/06 04:51:36;;;;;;;8.80;5.07;;;;;;;14.06;100.00;101307.09;6191761;28;20467;-71
2023/07/06 04:54:37;;;;;;;11.13;5.32;;;;;;;14.02;100.00;101307.38;6189765;28;20362;-71
2023/07/06 04:57:39;;;;;;;10.02;4.90;;;;;;;14.09;100.00;101312.22;6218580;28;20061;-71
2023/07/06 05:00:41;;;;;;;14.77;5.30;;;;;;;14.01;100.00;101309.16;6193504;28;20109;-72
2023/07/06 05:03:44;;;;;;;7.90;4.90;;;;;;;14.02;100.00;101312.66;6194106;28;20050;-71
2023/07/06 05:06:47;;;;;;;9.38;5.72;;;;;;;14.05;100.00;101305.41;6199839;28;20054;-71
2023/07/06 05:09:48;;;;;;;9.70;5.20;;;;;;;14.03;100.00;101307.28;6196176;28;20051;-71
2023/07/06 05:12:51;;;;;;;11.88;5.72;;;;;;;14.05;100.00;101308.06;6189901;28;20354;-72
2023/07/06 05:15:53;;;;;;;9.98;5.22;;;;;;;14.07;100.00;101313.25;6189633;28;20626;-70
2023/07/06 05:18:54;;;;;;;8.95;5.32;;;;;;;13.99;100.00;101318.13;6192503;28;20042;-71
2023/07/06 05:21:57;;;;;;;11.73;6.05;;;;;;;14.04;100.00;101324.00;6190086;28;20050;-71
2023/07/06 05:24:59;;;;;;;11.48;5.60;;;;;;;14.03;100.00;101314.34;6191648;28;20055;-70
2023/07/06 05:28:00;;;;;;;9.98;5.10;;;;;;;14.15;100.00;101318.94;6190394;28;20050;-71
2023/07/06 05:31:03;;;;;;;7.97;5.38;;;;;;;14.11;100.00;101312.97;6190926;28;20469;-71
2023/07/06 05:34:05;;;;;;;10.07;5.18;;;;;;;14.20;100.00;101322.16;6190223;28;20129;-70
2023/07/06 05:37:07;;;;;;;7.65;4.90;;;;;;;14.26;100.00;101324.44;6191746;28;20465;-71
2023/07/06 05:40:10;;;;;;;10.90;5.05;;;;;;;14.33;100.00;101323.13;6189631;28;20638;-70
2023/07/06 05:43:11;;;;;;;8.48;4.40;;;;;;;14.41;100.00;101333.25;6190656;28;20533;-71
2023/07/06 05:46:13;;;;;;;10.35;5.13;;;;;;;14.47;100.00;101328.44;6190204;28;20047;-70
2023/07/06 05:49:15;;;;;;;12.60;4.97;;;;;;;14.53;100.00;101335.16;6190424;28;20057;-70
2023/07/06 05:52:17;;;;;;;10.32;5.85;;;;;;;14.56;100.00;101339.44;6193903;28;20050;-71
2023/07/06 05:55:19;;;;;;;9.57;5.60;;;;;;;14.61;100.00;101332.06;6200116;28;20058;-70
2023/07/06 05:58:20;;;;;;;12.10;6.75;;;;;;;14.62;100.00;101334.59;6189734;28;20046;-70
2023/07/06 06:01:23;;;;;;;12.85;6.10;;;;;;;14.67;100.00;101339.63;6186106;28;20355;-71
2023/07/06 06:04:25;;;;;;;9.18;5.50;;;;;;;14.73;100.00;101331.31;6178371;28;20430;-71
2023/07/06 06:07:28;;;;;;;10.65;6.03;;;;;;;14.78;100.00;101334.53;6178391;28;20133;-71
2023/07/06 06:10:31;;;;;;;12.38;6.97;;;;;;;14.74;100.00;101330.38;6178212;28;20051;-71
2023/07/06 06:13:33;;;;;;;12.07;6.82;;;;;;;14.79;100.00;101336.22;6178027;28;20057;-70
2023/07/06 06:16:35;;;;;;;15.73;6.32;;;;;;;14.77;100.00;101339.94;6178009;28;20050;-71
2023/07/06 06:19:38;;;;;;;11.10;5.47;;;;;;;14.77;100.00;101345.22;6178403;28;20074;-71
2023/07/06 06:22:41;;;;;;;11.48;6.05;;;;;;;14.78;100.00;101338.97;6177736;28;20091;-71
2023/07/06 06:25:42;;;;;;;17.00;6.18;;;;;;;14.78;100.00;101347.78;6178229;28;20184;-71
2023/07/06 06:28:44;;;;;;;11.32;6.07;;;;;;;14.91;100.00;101359.31;6178156;28;20053;-70
2023/07/06 06:31:45;;;;;;;11.77;6.22;;;;;;;14.96;100.00;101359.03;6182787;28;20046;-70
2023/07/06 06:34:46;;;;;;;12.75;6.20;;;;;;;15.02;100.00;101363.91;6188691;28;20451;-72
2023/07/06 06:37:50;;;;;;;11.02;5.97;;;;;;;15.05;100.00;101369.03;6200578;28;20057;-70
2023/07/06 06:40:51;;;;;;;12.60;6.32;;;;;;;15.12;100.00;101372.13;6201748;28;20356;-72
2023/07/06 06:43:52;;;;;;;15.68;7.15;;;;;;;15.09;100.00;101375.00;6201386;28;20069;-72
2023/07/06 06:46:56;;;;;;;12.15;5.85;;;;;;;15.15;100.00;101380.75;6190784;28;20363;-70
2023/07/06 06:49:57;;;;;;;10.10;5.40;;;;;;;15.30;100.00;101383.38;6177593;28;20051;-70
2023/07/06 06:53:00;;;;;;;12.23;6.35;;;;;;;15.30;100.00;101376.28;6177378;28;20568;-71
2023/07/06 06:56:04;;;;;;;16.42;5.43;;;;;;;15.38;100.00;101362.56;6194177;28;20054;-71
2023/07/06 06:59:05;;;;;;;15.88;5.72;;;;;;;15.41;100.00;101368.53;6213150;28;20054;-71
2023/07/06 07:02:07;;;;;;;13.43;6.07;;;;;;;15.48;100.00;101388.34;6217361;28;20046;-71
2023/07/06 07:05:09;;;;;;;10.82;5.70;;;;;;;15.56;100.00;101387.03;6216534;28;20050;-71
2023/07/06 07:08:11;;;;;;;17.45;7.18;;;;;;;15.65;100.00;101386.47;6177337;28;20371;-70
2023/07/06 07:11:13;;;;;;;11.95;5.85;;;;;;;15.67;100.00;101384.59;6177504;28;20047;-70
2023/07/06 07:14:15;;;;;;;14.25;5.90;;;;;;;15.77;100.00;101387.50;6177156;28;20135;-71
2023/07/06 07:17:17;;;;;;;14.85;6.95;;;;;;;15.81;100.00;101397.78;6178605;28;20086;-73
2023/07/06 07:20:19;;;;;;;10.55;5.50;;;;;;;15.86;100.00;101395.69;6182125;28;20056;-72
2023/07/06 07:23:23;;;;;;;11.00;5.30;;;;;;;16.00;100.00;101389.50;6181747;28;20197;-70
2023/07/06 07:26:25;;;;;;;9.80;5.53;;;;;;;16.03;100.00;101396.38;6182112;28;20058;-71
2023/07/06 07:29:27;;;;;;;11.55;5.78;;;;;;;16.09;100.00;101395.97;6188924;28;20050;-71
2023/07/06 07:32:29;;;;;;;13.10;5.97;;;;;;;16.17;100.00;101399.00;6221878;28;20046;-71
2023/07/06 07:35:31;;;;;;;16.30;5.70;;;;;;;16.30;100.00;101399.84;6230394;28;20050;-70
2023/07/06 07:38:36;;;;;;;15.65;4.93;;;;;;;16.36;100.00;101396.78;6229974;28;20058;-70
2023/07/06 07:41:37;;;;;;;9.15;4.82;;;;;;;16.43;100.00;101402.53;6229745;28;20108;-70
2023/07/06 07:44:39;;;;;;;6.63;4.47;;;;;;;16.52;100.00;101393.94;6230174;28;20431;-70
2023/07/06 07:47:40;;;;;;;6.32;4.28;;;;;;;16.56;100.00;101406.06;6225945;28;20065;-70
2023/07/06 07:50:49;;;;;;;13.48;3.35;;;;;;;16.54;100.00;101410.63;6221715;28;20441;-72
2023/07/06 07:53:53;;;;;;;9.77;3.30;;;;;;;16.58;100.00;101408.59;6229583;28;20177;-71
2023/07/06 07:56:54;;;;;;;9.90;3.78;;;;;;;16.57;100.00;101409.56;6229539;28;20462;-70
2023/07/06 07:59:56;;;;;;;10.77;3.38;;;;;;;16.57;100.00;101404.25;6229749;28;20089;-70
2023/07/06 08:02:57;;;;;;;6.25;3.55;;;;;;;16.62;100.00;101412.75;6229172;28;20743;-70
2023/07/06 08:06:02;;;;;;;9.43;2.67;;;;;;;16.64;100.00;101409.03;6229476;28;20377;-70
2023/07/06 08:09:07;;;;;;;9.52;3.25;;;;;;;16.76;100.00;101407.41;6229286;28;20457;-71
2023/07/06 08:12:09;;;;;;;6.95;2.80;;;;;;;16.77;100.00;101419.72;6229394;28;20046;-74
2023/07/06 08:15:11;;;;;;;5.78;2.55;;;;;;;16.79;100.00;101411.63;6229282;28;20057;-71
2023/07/06 08:18:12;;;;;;;7.85;2.58;;;;;;;16.89;100.00;101402.91;6229416;28;20054;-70
2023/07/06 08:21:13;;;;;;;6.28;2.67;;;;;;;16.92;100.00;101405.38;6229138;28;20053;-70
2023/07/06 08:24:16;;;;;;;4.97;2.38;;;;;;;16.90;100.00;101409.09;6229046;28;20053;-70
2023/07/06 08:27:17;;;;;;;6.60;2.75;;;;;;;16.98;100.00;101404.06;6207672;28;20073;-70
2023/07/06 08:30:20;;;;;;;7.57;2.85;;;;;;;17.04;100.00;101405.47;6186278;28;20042;-70
2023/07/06 08:33:22;;;;;;;7.05;2.70;;;;;;;17.06;100.00;101406.22;6204264;28;20137;-70
2023/07/06 08:36:25;;;;;;;4.70;2.83;;;;;;;17.03;100.00;101406.41;6185318;28;20055;-71
2023/07/06 08:39:28;;;;;;;5.30;2.70;;;;;;;17.08;100.00;101412.25;6180342;28;20051;-70
2023/07/06 08:42:31;;;;;;;8.73;2.42;;;;;;;17.16;100.00;101409.91;6192522;28;20057;-70
2023/07/06 08:45:38;;;;;;;5.78;2.25;;;;;;;17.23;100.00;101417.34;6206830;28;20355;-71
2023/07/06 08:48:41;;;;;;;3.88;2.45;;;;;;;17.26;100.00;101418.94;6212963;28;20050;-71
2023/07/06 08:51:42;;;;;;;4.18;2.67;;;;;;;17.39;100.00;101421.56;6214707;28;20053;-71
2023/07/06 08:54:50;;;;;;;2.80;2.13;;;;;;;17.52;100.00;101416.22;6216344;28;20057;-71
2023/07/06 08:57:52;;;;;;;5.55;2.05;;;;;;;17.57;100.00;101422.06;6214425;28;20053;-70
2023/07/06 09:01:00;;;;;;;4.82;2.60;;;;;;;17.67;100.00;101415.13;6215130;28;20072;-69
2023/07/06 09:04:12;;;;;;;8.90;2.50;;;;;;;17.74;100.00;101411.09;6218569;28;20058;-70
2023/07/06 09:07:15;;;;;;;3.00;1.95;;;;;;;17.80;100.00;101409.78;6224416;28;20050;-70
2023/07/06 09:10:20;;;;;;;5.35;1.80;;;;;;;17.82;100.00;101415.84;6202473;28;20145;-71
2023/07/06 09:13:25;;;;;;;3.33;1.77;;;;;;;17.76;100.00;101414.50;6207291;28;20611;-70
2023/07/06 09:16:27;;;;;;;2.38;1.45;;;;;;;17.76;100.00;101417.16;6211659;28;20057;-70
2023/07/06 09:19:28;;;;;;;3.50;1.60;;;;;;;17.68;100.00;101430.13;6215143;28;20077;-70
2023/07/06 09:22:30;;;;;;;3.85;1.58;;;;;;;17.65;100.00;101433.84;6217825;28;20042;-70
2023/07/06 09:25:37;;;;;;;3.88;1.52;;;;;;;17.63;100.00;101432.28;6202947;28;20054;-71
2023/07/06 09:28:39;;;;;;;3.35;1.48;;;;;;;17.66;100.00;101427.56;6187349;28;20053;-70
2023/07/06 09:31:41;;;;;;;4.72;1.60;;;;;;;17.68;100.00;101432.78;6203921;28;20049;-70
2023/07/06 09:34:45;;;;;;;3.45;1.50;;;;;;;17.65;100.00;101430.34;6209506;28;20326;-70
2023/07/06 09:37:47;;;;;;;3.13;1.40;;;;;;;17.61;100.00;101435.00;6208281;28;20049;-70
2023/07/06 09:40:50;;;;;;;3.85;1.55;;;;;;;17.65;100.00;101435.66;6212512;28;20061;-70
2023/07/06 09:43:57;;;;;;;2.67;2.17;;;;;;;17.65;100.00;101433.00;6224306;28;20061;-70
2023/07/06 09:47:00;;;;;;;6.35;1.55;;;;;;;17.67;100.00;101442.56;6213022;28;20050;-71
2023/07/06 09:50:14;;;;;;;3.20;1.17;;;;;;;17.71;100.00;101437.84;6222951;28;20051;-70
2023/07/06 09:53:28;;;;;;;2.80;1.30;;;;;;;17.72;100.00;101437.75;6210907;28;20431;-71
2023/07/06 09:56:30;;;;;;;4.05;1.20;;;;;;;17.77;100.00;101442.78;6227129;28;20430;-70
2023/07/06 09:59:32;;;;;;;10.02;1.92;;;;;;;17.86;100.00;101444.78;6225606;28;20053;-72
2023/07/06 10:02:38;;;;;;;6.22;1.65;;;;;;;18.01;100.00;101442.78;6207249;28;20043;-70
2023/07/06 10:05:46;;;;;;;3.40;1.20;;;;;;;17.97;100.00;101439.50;6203744;28;20350;-70
2023/07/06 10:08:55;;;;;;;3.33;1.33;;;;;;;17.95;100.00;101443.25;6209217;28;20439;-70
2023/07/06 10:12:06;;;;;;;2.03;1.20;;;;;;;18.00;100.00;101451.75;6213841;28;20046;-72
2023/07/06 10:15:19;;;;;;;3.05;1.40;;;;;;;18.04;100.00;101447.06;6210149;28;20061;-71
2023/07/06 10:18:23;;;;;;;3.28;1.48;;;;;;;18.09;100.00;101443.09;6215163;28;20046;-71
2023/07/06 10:21:33;;;;;;;1.33;0.93;;;;;;;18.16;100.00;101451.44;6218337;28;20046;-75
2023/07/06 10:24:39;;;;;;;;;;;;;;;18.20;100.00;101453.75;6213442;28;20046;-75
2023/07/06 10:27:47;;;;;;;4.10;1.02;;;;;;;18.18;100.00;101452.19;6226502;28;19921;-75
2023/07/06 10:30:53;;;;;;;4.93;1.65;;;;;;;18.16;100.00;101452.28;6218103;28;20042;-76
2023/07/06 10:33:57;;;;;;;3.08;1.35;;;;;;;18.14;100.00;101456.88;6220635;28;20054;-76
2023/07/06 10:37:02;;;;;;;2.35;1.42;;;;;;;18.16;100.00;101454.94;6214159;28;20050;-75
2023/07/06 10:40:16;;;;;;;3.50;1.45;;;;;;;18.18;100.00;101455.69;6214685;28;20465;-75
2023/07/06 10:43:22;;;;;;;7.90;2.10;;;;;;;18.24;100.00;101457.06;6201236;28;20055;-76
2023/07/06 10:46:32;;;;;;;1.00;1.00;;;;;;;18.32;100.00;101460.00;6194594;28;20586;-75
2023/07/06 10:50:12;;;;;;;4.03;1.30;;;;;;;18.36;100.00;101449.97;6193670;28;20050;-75
2023/07/06 10:53:21;;;;;;;12.40;3.83;;;;;;;18.40;100.00;101459.44;6200778;28;20047;-75
2023/07/06 10:56:24;;;;;;;1.45;1.33;;;;;;;18.59;100.00;101456.22;6201594;28;20389;-74
2023/07/06 10:59:34;;;;;;;1.20;1.10;;;;;;;18.87;100.00;101458.50;6194420;28;20047;-75
2023/07/06 11:02:40;;;;;;;4.60;1.30;;;;;;;19.19;100.00;101464.00;6177341;28;20129;-75
2023/07/06 11:05:53;;;;;;;1.15;1.02;;;;;;;19.39;100.00;101474.91;6177430;28;20051;-76
2023/07/06 11:09:22;;;;;;;2.83;1.95;;;;;;;19.64;100.00;101468.53;6192344;28;20041;-74
2023/07/06 11:12:24;;;;;;;3.50;1.63;;;;;;;19.72;100.00;101464.28;6212222;28;20046;-75
2023/07/06 11:15:31;;;;;;;2.50;1.38;;;;;;;19.62;100.00;101467.78;6177583;28;20058;-75
2023/07/06 11:18:38;;;;;;;4.25;1.30;;;;;;;19.47;100.00;101467.16;6206195;28;20054;-74
2023/07/06 11:21:45;;;;;;;2.38;1.23;;;;;;;19.37;100.00;101474.19;6205089;28;20054;-75
2023/07/06 11:24:50;;;;;;;1.40;1.10;;;;;;;19.28;100.00;101475.75;6199109;28;20053;-78
2023/07/06 11:27:58;;;;;;;1.63;0.98;;;;;;;19.28;100.00;101478.44;6210358;28;20050;-76
2023/07/06 11:31:10;;;;;;;1.53;1.03;;;;;;;19.34;100.00;101475.28;6219986;28;20046;-76
2023/07/06 11:34:23;;;;;;;2.20;1.15;;;;;;;19.49;100.00;101478.56;6205815;28;20054;-78
2023/07/06 11:37:38;;;;;;;2.13;0.80;;;;;;;19.72;100.00;101476.75;6201635;28;20057;-76
2023/07/06 11:41:00;;;;;;;2.25;1.15;;;;;;;19.87;100.00;101477.34;6215252;28;20053;-76
2023/07/06 11:44:18;;;;;;;1.13;0.77;;;;;;;19.96;100.00;101481.94;6225559;28;20089;-76
2023/07/06 11:47:43;;;;;;;6.03;1.48;;;;;;;19.93;100.00;101469.66;6210705;28;20054;-76
2023/07/06 11:50:46;;;;;;;3.13;1.67;;;;;;;19.93;100.00;101471.50;6178989;28;20050;-76
2023/07/06 11:53:57;;;;;;;4.50;1.30;;;;;;;19.94;100.00;101471.38;6181534;28;20101;-76
2023/07/06 12:00:33;;;;;;;1.92;1.20;;;;;;;19.79;100.00;101469.09;6200729;28;20438;-77
2023/07/06 12:03:34;;;;;;;1.17;0.95;;;;;;;19.68;100.00;101468.16;6202255;28;20050;-77
2023/07/06 12:06:35;;;;;;;2.33;1.13;;;;;;;19.66;100.00;101464.75;6204970;28;20058;-77
2023/07/06 12:09:39;;;;;;;3.03;1.30;;;;;;;19.65;100.00;101471.06;6205364;28;20050;-77
2023/07/06 12:12:41;;;;;;;4.10;1.15;;;;;;;19.70;100.00;101474.19;6204783;28;20050;-77
2023/07/06 12:15:42;;;;;;;3.85;1.38;;;;;;;19.56;100.00;101476.25;6205190;28;20053;-78
2023/07/06 12:18:46;;;;;;;3.72;1.35;;;;;;;19.50;100.00;101475.78;6204973;28;20057;-78
2023/07/06 12:21:51;;;;;;;2.70;1.25;;;;;;;19.48;100.00;101479.50;6204601;28;20042;-77
2023/07/06 12:24:55;;;;;;;2.40;1.20;;;;;;;19.47;99.75;101481.34;6204882;28;20053;-77
2023/07/06 12:27:58;;;;;;;2.78;1.20;;;;;;;19.57;100.00;101485.94;6204821;28;20585;-77
2023/07/06 12:31:02;;;;;;;3.17;1.42;;;;;;;19.57;100.00;101477.94;6203858;28;20252;-77
2023/07/06 12:34:05;;;;;;;1.45;1.08;;;;;;;19.66;100.00;101474.56;6209925;28;20058;-77
2023/07/06 12:37:11;;;;;;;1.95;1.08;;;;;;;19.73;100.00;101478.44;6220445;28;20057;-78
2023/07/06 12:40:21;;;;;;;2.30;1.08;;;;;;;19.98;98.93;101479.97;6229022;28;20061;-77
2023/07/06 12:43:26;;;;;;;1.50;1.00;;;;;;;20.38;98.74;101482.88;6228488;28;20077;-78
2023/07/06 12:46:32;;;;;;;0.98;0.85;;;;;;;20.43;97.75;101467.31;6226647;28;20053;-78
2023/07/06 12:49:44;;;;;;;0.95;0.70;;;;;;;20.42;98.46;101467.47;6214556;28;20062;-78
2023/07/06 12:52:46;;;;;;;2.72;1.08;;;;;;;20.32;98.17;101470.06;6215861;28;20081;-78
2023/07/06 12:55:49;;;;;;;8.27;1.20;;;;;;;20.26;95.38;101470.56;6223502;28;20580;-77
2023/07/06 12:58:57;;;;;;;1.30;0.90;;;;;;;20.43;94.36;101470.00;6216691;28;20046;-78
2023/07/06 13:01:59;;;;;;;4.15;1.10;;;;;;;20.87;91.76;101467.25;6228191;28;20046;-78
2023/07/06 13:05:14;;;;;;;3.90;1.48;;;;;;;21.50;87.19;101476.06;6228204;28;20541;-79
2023/07/06 13:08:16;;;;;;;1.63;1.00;;;;;;;21.86;93.13;101477.31;6217457;28;20050;-78
2023/07/06 13:11:21;;;;;;;1.83;1.00;;;;;;;22.19;83.59;101473.44;6219721;28;20050;-79
2023/07/06 13:14:23;;;;;;;2.95;1.00;;;;;;;22.27;80.06;101478.09;6213794;28;20078;-77
2023/07/06 13:17:27;;;;;;;5.00;1.02;;;;;;;22.08;82.30;101476.22;6223603;28;20050;-80
2023/07/06 13:20:30;;;;;;;4.13;1.23;;;;;;;21.88;83.13;101488.72;6221639;28;20050;-78
2023/07/06 13:23:32;;;;;;;5.13;0.93;;;;;;;21.53;82.69;101484.69;6219142;28;20112;-78
2023/07/06 13:26:35;;;;;;;2.55;1.15;;;;;;;21.58;87.95;101484.28;6219619;28;20056;-78
2023/07/06 13:29:36;;;;;;;1.45;0.95;;;;;;;22.01;79.48;101481.28;6217484;28;20453;-79
2023/07/06 13:32:40;;;;;;;0.88;0.80;;;;;;;22.41;82.21;101480.38;6227408;28;20435;-78
2023/07/06 13:35:44;;;;;;;1.92;0.90;;;;;;;22.48;64.71;101492.22;6214183;28;20068;-79
2023/07/06 13:38:46;;;;;;;1.25;1.05;;;;;;;22.27;62.54;101478.09;6219113;28;20406;-78
2023/07/06 13:41:49;;;;;;;3.20;1.02;;;;;;;21.94;66.22;101490.00;6215047;28;20121;-79
2023/07/06 13:44:50;;;;;;;3.42;1.20;;;;;;;21.67;64.84;101488.81;6227404;28;20093;-79
2023/07/06 13:47:52;;;;;;;2.20;0.98;;;;;;;21.52;65.74;101482.13;6227188;28;20049;-78
2023/07/06 13:50:54;;;;;;;1.77;1.10;;;;;;;21.36;68.82;101485.31;6226901;28;20557;-78
2023/07/06 13:53:55;;;;;;;1.33;0.70;;;;;;;21.63;65.49;101482.03;6221482;28;20057;-78
2023/07/06 13:56:58;;;;;;;2.60;1.30;;;;;;;21.87;64.97;101483.50;6210430;28;20060;-80
2023/07/06 14:00:00;;;;;;;4.07;1.42;;;;;;;21.94;63.92;101487.34;6202664;28;20050;-79
2023/07/06 14:03:01;;;;;;;5.32;1.10;;;;;;;21.84;64.34;101479.25;6202161;28;20343;-78
2023/07/06 14:06:03;;;;;;;3.08;1.02;;;;;;;21.93;64.63;101497.16;6202515;28;20457;-78
2023/07/06 14:09:06;;;;;;;2.80;1.35;;;;;;;22.33;64.28;101492.75;6202103;28;20478;-77